createdAt,value
2018-03-04T00:00:22.934Z,95.92
2018-03-04T00:01:22.933Z,95.54
2018-03-04T00:02:22.939Z,95.73
2018-03-04T00:03:22.880Z,95.92
2018-03-04T00:04:22.871Z,95.45
2018-03-04T00:05:22.850Z,95.16
2018-03-04T00:06:22.837Z,95.26
2018-03-04T00:07:22.828Z,95.07
2018-03-04T00:08:22.851Z,94.50
2018-03-04T00:09:22.801Z,94.98
2018-03-04T00:10:22.783Z,94.88
2018-03-04T00:11:22.772Z,94.79
2018-03-04T00:12:22.761Z,94.50
2018-03-04T00:13:22.739Z,94.69
2018-03-04T00:14:22.753Z,95.16
2018-03-04T00:15:22.767Z,95.07
2018-03-04T00:16:22.701Z,94.79
2018-03-04T00:17:22.686Z,94.79
2018-03-04T00:18:22.677Z,95.35
2018-03-04T00:19:22.677Z,94.60
2018-03-04T00:20:22.643Z,94.22
2018-03-04T00:21:22.630Z,94.50
2018-03-04T00:22:22.618Z,94.79
2018-03-04T00:23:22.597Z,94.98
2018-03-04T00:24:22.591Z,95.07
2018-03-04T00:25:22.571Z,95.07
2018-03-04T00:26:22.557Z,95.54
2018-03-04T00:27:22.568Z,95.54
2018-03-04T00:28:22.531Z,95.82
2018-03-04T00:29:22.520Z,95.92
2018-03-04T00:30:22.504Z,95.35
2018-03-04T00:31:22.523Z,95.73
2018-03-04T00:32:22.486Z,95.64
2018-03-04T00:33:22.459Z,95.35
2018-03-04T00:34:22.447Z,95.73
2018-03-04T00:35:22.481Z,95.07
2018-03-04T00:36:22.456Z,95.26
2018-03-04T00:37:22.403Z,95.26
2018-03-04T00:38:22.398Z,95.26
2018-03-04T00:39:22.372Z,94.79
2018-03-04T00:40:22.368Z,94.98
2018-03-04T00:41:22.347Z,95.07
2018-03-04T00:42:22.332Z,94.69
2018-03-04T00:43:22.316Z,95.26
2018-03-04T00:44:22.318Z,95.73
2018-03-04T00:45:22.288Z,95.64
2018-03-04T00:46:22.277Z,95.64
2018-03-04T00:47:22.268Z,95.73
2018-03-04T00:48:22.273Z,95.54
2018-03-04T00:49:22.232Z,96.20
2018-03-04T00:50:22.218Z,96.11
2018-03-04T00:51:22.205Z,96.11
2018-03-04T00:52:22.190Z,96.01
2018-03-04T00:53:22.222Z,96.01
2018-03-04T00:54:22.162Z,96.67
2018-03-04T00:55:22.147Z,96.67
2018-03-04T00:56:22.133Z,96.72
2018-03-04T00:57:22.121Z,96.48
2018-03-04T00:58:22.106Z,96.25
2018-03-04T00:59:22.089Z,95.92
2018-03-04T01:00:22.076Z,95.68
2018-03-04T01:01:22.068Z,95.64
2018-03-04T01:02:22.049Z,95.50
2018-03-04T01:03:22.046Z,96.15
2018-03-04T01:04:22.023Z,96.34
2018-03-04T01:05:22.013Z,95.97
2018-03-04T01:06:21.993Z,96.72
2018-03-04T01:07:21.979Z,96.53
2018-03-04T01:08:21.965Z,96.62
2018-03-04T01:09:21.952Z,96.53
2018-03-04T01:10:21.937Z,96.53
2018-03-04T01:11:21.924Z,96.72
2018-03-04T01:12:21.910Z,96.62
2018-03-04T01:13:21.896Z,96.53
2018-03-04T01:14:21.888Z,96.91
2018-03-04T01:15:21.867Z,96.91
2018-03-04T01:16:21.853Z,97.19
2018-03-04T01:17:21.842Z,97.19
2018-03-04T01:18:21.828Z,97.09
2018-03-04T01:19:21.813Z,97.19
2018-03-04T01:20:21.811Z,97.19
2018-03-04T01:21:21.785Z,97.09
2018-03-04T01:22:21.774Z,96.72
2018-03-04T01:23:21.759Z,96.91
2018-03-04T01:24:21.746Z,96.15
2018-03-04T01:25:21.735Z,95.59
2018-03-04T01:26:21.720Z,95.68
2018-03-04T01:27:21.702Z,95.68
2018-03-04T01:28:21.692Z,95.50
2018-03-04T01:29:21.678Z,95.40
2018-03-04T01:30:21.664Z,95.21
2018-03-04T01:31:21.649Z,95.59
2018-03-04T01:32:21.635Z,95.50
2018-03-04T01:33:21.623Z,95.50
2018-03-04T01:34:21.610Z,96.34
2018-03-04T01:35:21.596Z,96.81
2018-03-04T01:36:21.582Z,96.53
2018-03-04T01:37:21.568Z,96.53
2018-03-04T01:38:21.555Z,96.72
2018-03-04T01:39:21.542Z,96.72
2018-03-04T01:40:21.529Z,97.28
2018-03-04T01:41:21.515Z,96.81
2018-03-04T01:42:21.501Z,97.19
2018-03-04T01:43:21.487Z,97.47
2018-03-04T01:44:21.474Z,97.28
2018-03-04T01:45:21.460Z,97.19
2018-03-04T01:46:21.448Z,97.00
2018-03-04T01:47:21.433Z,97.19
2018-03-04T01:48:21.425Z,97.19
2018-03-04T01:49:21.406Z,96.91
2018-03-04T01:50:21.391Z,96.62
2018-03-04T01:51:21.375Z,96.81
2018-03-04T01:52:21.366Z,96.62
2018-03-04T01:53:21.352Z,96.53
2018-03-04T01:54:21.337Z,96.91
2018-03-04T01:55:21.322Z,96.34
2018-03-04T01:56:21.322Z,96.25
2018-03-04T01:57:21.304Z,96.91
2018-03-04T01:58:21.286Z,96.91
2018-03-04T01:59:21.274Z,97.38
2018-03-04T02:00:21.258Z,97.38
2018-03-04T02:01:21.247Z,97.09
2018-03-04T02:02:21.230Z,96.25
2018-03-04T02:03:21.220Z,96.25
2018-03-04T02:04:21.205Z,96.34
2018-03-04T02:05:21.193Z,97.00
2018-03-04T02:06:21.180Z,97.09
2018-03-04T02:07:21.180Z,96.91
2018-03-04T02:08:21.152Z,97.28
2018-03-04T02:09:21.137Z,97.28
2018-03-04T02:10:21.145Z,97.47
2018-03-04T02:11:21.110Z,97.28
2018-03-04T02:12:21.099Z,97.28
2018-03-04T02:13:21.089Z,97.38
2018-03-04T02:14:21.072Z,97.56
2018-03-04T02:15:21.060Z,97.85
2018-03-04T02:16:21.047Z,97.56
2018-03-04T02:17:21.030Z,97.66
2018-03-04T02:18:21.023Z,97.85
2018-03-04T02:19:21.037Z,97.75
2018-03-04T02:20:20.995Z,98.13
2018-03-04T02:21:20.979Z,98.13
2018-03-04T02:22:20.968Z,97.66
2018-03-04T02:23:20.955Z,97.66
2018-03-04T02:24:20.939Z,97.94
2018-03-04T02:25:20.932Z,97.94
2018-03-04T02:26:20.911Z,98.13
2018-03-04T02:27:20.900Z,97.94
2018-03-04T02:28:20.889Z,98.32
2018-03-04T02:29:20.877Z,98.60
2018-03-04T02:30:20.860Z,98.41
2018-03-04T02:31:20.845Z,98.04
2018-03-04T02:32:20.848Z,98.70
2018-03-04T02:33:20.822Z,99.45
2018-03-04T02:34:20.808Z,99.99
2018-03-04T02:35:20.795Z,99.99
2018-03-04T02:36:20.785Z,99.99
2018-03-04T02:37:20.769Z,99.99
2018-03-04T02:38:20.769Z,99.99
2018-03-04T02:39:20.742Z,99.99
2018-03-04T02:40:20.731Z,99.99
2018-03-04T02:41:20.742Z,99.99
2018-03-04T02:42:20.706Z,99.99
2018-03-04T02:43:20.693Z,99.99
2018-03-04T02:44:20.679Z,99.84
2018-03-04T02:45:20.674Z,98.80
2018-03-04T02:46:20.660Z,97.29
2018-03-04T02:47:20.660Z,96.44
2018-03-04T02:48:20.634Z,96.16
2018-03-04T02:49:20.632Z,95.40
2018-03-04T02:50:20.609Z,94.93
2018-03-04T02:51:20.598Z,94.70
2018-03-04T02:52:20.615Z,94.03
2018-03-04T02:53:20.576Z,93.56
2018-03-04T02:54:20.566Z,93.18
2018-03-04T02:55:20.561Z,93.47
2018-03-04T02:56:20.559Z,93.37
2018-03-04T02:57:20.535Z,92.52
2018-03-04T02:58:20.519Z,92.52
2018-03-04T02:59:20.508Z,92.61
2018-03-04T03:00:20.511Z,92.24
2018-03-04T03:01:20.489Z,92.52
2018-03-04T03:02:20.483Z,92.05
2018-03-04T03:03:20.467Z,91.86
2018-03-04T03:04:20.488Z,91.86
2018-03-04T03:05:20.461Z,91.67
2018-03-04T03:06:20.435Z,91.48
2018-03-04T03:07:20.440Z,91.67
2018-03-04T03:08:20.421Z,92.14
2018-03-04T03:09:20.405Z,91.86
2018-03-04T03:10:20.429Z,92.43
2018-03-04T03:11:20.420Z,92.61
2018-03-04T03:12:20.378Z,92.61
2018-03-04T03:13:20.367Z,92.43
2018-03-04T03:14:20.355Z,92.61
2018-03-04T03:15:20.343Z,91.86
2018-03-04T03:16:20.356Z,92.24
2018-03-04T03:17:20.328Z,92.33
2018-03-04T03:18:20.315Z,92.05
2018-03-04T03:19:20.303Z,92.33
2018-03-04T03:20:20.295Z,92.61
2018-03-04T03:21:20.296Z,93.18
2018-03-04T03:22:20.292Z,93.28
2018-03-04T03:23:20.305Z,93.09
2018-03-04T03:24:20.260Z,93.28
2018-03-04T03:25:20.274Z,93.47
2018-03-04T03:26:20.240Z,93.66
2018-03-04T03:27:20.236Z,94.22
2018-03-04T03:28:20.218Z,94.32
2018-03-04T03:29:20.212Z,94.41
2018-03-04T03:30:20.208Z,94.22
2018-03-04T03:31:20.192Z,94.32
2018-03-04T03:32:20.184Z,94.70
2018-03-04T03:33:20.178Z,94.89
2018-03-04T03:34:20.169Z,95.07
2018-03-04T03:35:20.151Z,95.45
2018-03-04T03:36:20.142Z,95.26
2018-03-04T03:37:20.136Z,95.45
2018-03-04T03:38:20.123Z,95.17
2018-03-04T03:39:20.116Z,94.98
2018-03-04T03:40:20.106Z,95.83
2018-03-04T03:41:20.126Z,95.92
2018-03-04T03:42:20.126Z,95.73
2018-03-04T03:43:20.131Z,96.02
2018-03-04T03:44:20.069Z,95.83
2018-03-04T03:45:20.058Z,95.54
2018-03-04T03:46:20.052Z,95.73
2018-03-04T03:47:20.039Z,96.02
2018-03-04T03:48:20.030Z,96.40
2018-03-04T03:49:20.022Z,96.59
2018-03-04T03:50:20.018Z,96.59
2018-03-04T03:51:20.003Z,96.59
2018-03-04T03:52:19.992Z,96.96
2018-03-04T03:53:19.986Z,96.78
2018-03-04T03:54:19.976Z,96.78
2018-03-04T03:55:20.014Z,96.78
2018-03-04T03:56:19.967Z,96.40
2018-03-04T03:57:20.006Z,96.59
2018-03-04T03:58:19.949Z,96.11
2018-03-04T04:01:48.086Z,96.11
2018-03-04T04:02:46.542Z,96.02
2018-03-04T04:05:04.428Z,96.21
2018-03-04T04:05:40.839Z,96.30
2018-03-04T04:08:31.438Z,96.11
2018-03-04T04:15:08.630Z,96.96
2018-03-04T04:16:08.503Z,96.78
2018-03-04T04:17:08.484Z,96.78
2018-03-04T04:18:33.777Z,96.78
2018-03-04T04:34:30.471Z,97.34
2018-03-04T04:35:30.461Z,97.63
2018-03-04T04:37:24.827Z,97.15
2018-03-04T04:38:24.840Z,97.44
2018-03-04T04:39:24.816Z,97.72
2018-03-04T04:40:24.855Z,97.44
2018-03-04T04:41:24.820Z,97.34
2018-03-04T04:42:24.751Z,97.15
2018-03-04T04:43:24.759Z,97.72
2018-03-04T04:44:24.786Z,97.34
2018-03-04T04:45:24.725Z,97.72
2018-03-04T04:46:24.823Z,97.63
2018-03-04T04:47:24.830Z,97.81
2018-03-04T04:48:24.710Z,97.72
2018-03-04T04:49:24.735Z,97.72
2018-03-04T04:50:24.689Z,97.53
2018-03-04T04:51:24.703Z,97.53
2018-03-04T04:52:24.746Z,97.63
2018-03-04T04:53:24.681Z,97.44
2018-03-04T04:54:24.656Z,97.15
2018-03-04T04:55:24.642Z,97.15
2018-03-04T04:56:24.642Z,97.15
2018-03-04T04:57:24.648Z,97.44
2018-03-04T04:58:24.618Z,97.91
2018-03-04T04:59:24.646Z,98.00
2018-03-04T05:00:24.673Z,98.10
2018-03-04T05:01:24.624Z,98.10
2018-03-04T05:02:24.590Z,98.10
2018-03-04T05:03:24.580Z,98.00
2018-03-04T05:04:24.579Z,97.72
2018-03-04T05:05:24.650Z,98.66
2018-03-04T05:06:24.555Z,99.04
2018-03-04T05:07:24.539Z,99.14
2018-03-04T05:08:24.554Z,99.14
2018-03-04T05:09:24.523Z,99.52
2018-03-04T05:10:24.516Z,99.80
2018-03-04T05:11:24.541Z,99.89
2018-03-04T05:12:24.492Z,99.99
2018-03-04T05:13:24.482Z,99.99
2018-03-04T05:14:31.450Z,99.99
2018-03-04T05:15:24.471Z,99.99
2018-03-04T05:16:24.558Z,99.99
2018-03-04T05:17:24.546Z,99.80
2018-03-04T05:18:24.592Z,99.89
2018-03-04T05:19:25.437Z,99.99
2018-03-04T05:20:24.559Z,99.89
2018-03-04T05:21:24.668Z,99.99
2018-03-04T05:22:26.463Z,99.42
2018-03-04T05:23:44.468Z,99.42
2018-03-04T05:25:24.322Z,99.80
2018-03-04T05:26:24.277Z,99.99
2018-03-04T05:27:24.256Z,99.89
2018-03-04T05:28:24.247Z,99.99
2018-03-04T05:29:24.242Z,99.99
2018-03-04T05:30:24.232Z,99.80
2018-03-04T05:31:24.244Z,99.99
2018-03-04T05:32:24.265Z,99.76
2018-03-04T05:33:24.287Z,99.61
2018-03-04T05:34:24.293Z,99.61
2018-03-04T05:35:24.207Z,99.99
2018-03-04T05:36:24.260Z,99.99
2018-03-04T05:37:24.192Z,99.89
2018-03-04T05:40:21.655Z,99.99
2018-03-04T05:43:02.544Z,99.99
2018-03-04T05:44:02.520Z,99.99
2018-03-04T05:45:56.885Z,99.99
2018-03-04T05:46:56.825Z,99.99
2018-03-04T05:48:51.165Z,99.99
2018-03-04T05:49:51.231Z,99.99
2018-03-04T05:51:45.630Z,99.99
2018-03-04T05:52:45.626Z,99.99
2018-03-04T05:54:39.944Z,99.99
2018-03-04T05:55:39.927Z,99.99
2018-03-04T05:57:36.849Z,99.99
2018-03-04T05:58:35.298Z,99.99
2018-03-04T05:59:35.212Z,99.99
2018-03-04T06:00:35.182Z,99.99
2018-03-04T06:01:35.151Z,99.99
2018-03-04T06:02:35.156Z,99.99
2018-03-04T06:03:35.143Z,99.99
2018-03-04T06:04:35.124Z,99.99
2018-03-04T06:05:35.127Z,99.99
2018-03-04T06:06:35.105Z,99.99
2018-03-04T06:07:35.094Z,99.99
2018-03-04T06:08:35.092Z,99.99
2018-03-04T06:09:35.078Z,99.99
2018-03-04T06:10:35.068Z,99.99
2018-03-04T06:11:35.098Z,99.99
2018-03-04T06:12:35.058Z,99.99
2018-03-04T06:13:35.051Z,99.99
2018-03-04T06:14:35.036Z,99.99
2018-03-04T06:15:35.038Z,99.99
2018-03-04T06:16:35.030Z,99.99
2018-03-04T06:17:35.009Z,99.99
2018-03-04T06:18:35.005Z,99.99
2018-03-04T06:19:34.990Z,99.99
2018-03-04T06:20:34.985Z,99.99
2018-03-04T06:21:34.974Z,99.99
2018-03-04T06:22:34.971Z,99.99
2018-03-04T06:23:34.957Z,99.99
2018-03-04T06:24:34.951Z,99.99
2018-03-04T06:25:34.943Z,99.99
2018-03-04T06:26:34.931Z,99.99
2018-03-04T06:27:34.922Z,99.99
2018-03-04T06:28:34.919Z,99.99
2018-03-04T06:29:34.908Z,99.99
2018-03-04T06:30:34.896Z,99.99
2018-03-04T06:31:34.892Z,99.99
2018-03-04T06:32:34.882Z,99.99
2018-03-04T06:33:34.873Z,99.99
2018-03-04T06:34:34.933Z,99.99
2018-03-04T06:35:34.856Z,99.99
2018-03-04T06:36:34.851Z,99.99
2018-03-04T06:37:34.840Z,99.99
2018-03-04T06:38:34.832Z,99.99
2018-03-04T06:39:34.824Z,99.99
2018-03-04T06:40:34.816Z,99.99
2018-03-04T06:41:34.808Z,99.99
2018-03-04T06:42:34.797Z,99.99
2018-03-04T06:43:34.790Z,99.99
2018-03-04T06:44:34.786Z,99.99
2018-03-04T06:45:34.904Z,99.99
2018-03-04T06:46:34.770Z,99.99
2018-03-04T06:47:34.757Z,99.99
2018-03-04T06:48:34.747Z,99.99
2018-03-04T06:49:34.742Z,99.99
2018-03-04T06:50:34.733Z,99.99
2018-03-04T06:51:34.736Z,99.99
2018-03-04T06:52:34.718Z,99.99
2018-03-04T06:53:34.710Z,99.99
2018-03-04T06:54:34.866Z,99.99
2018-03-04T06:55:34.695Z,99.99
2018-03-04T06:56:34.686Z,99.85
2018-03-04T06:57:34.680Z,99.76
2018-03-04T06:58:34.689Z,99.76
2018-03-04T06:59:34.661Z,99.95
2018-03-04T07:00:34.654Z,99.99
2018-03-04T07:01:34.655Z,99.85
2018-03-04T07:02:34.657Z,99.47
2018-03-04T07:03:34.630Z,99.57
2018-03-04T07:04:34.618Z,99.66
2018-03-04T07:05:34.616Z,99.76
2018-03-04T07:06:34.686Z,99.66
2018-03-04T07:07:34.595Z,99.95
2018-03-04T07:08:34.589Z,99.38
2018-03-04T07:09:34.598Z,99.99
2018-03-04T07:10:34.574Z,99.99
2018-03-04T07:11:34.566Z,99.99
2018-03-04T07:12:34.560Z,99.99
2018-03-04T07:13:34.550Z,99.99
2018-03-04T07:14:34.542Z,99.99
2018-03-04T07:15:34.535Z,99.85
2018-03-04T07:16:34.531Z,99.95
2018-03-04T07:17:34.523Z,99.99
2018-03-04T07:18:34.511Z,99.99
2018-03-04T07:19:34.503Z,99.99
2018-03-04T07:20:34.495Z,99.95
2018-03-04T07:21:34.488Z,99.95
2018-03-04T07:22:34.480Z,99.99
2018-03-04T07:23:34.470Z,99.95
2018-03-04T07:24:34.465Z,99.76
2018-03-04T07:25:34.467Z,99.80
2018-03-04T07:26:34.448Z,99.33
2018-03-04T07:27:34.441Z,99.71
2018-03-04T07:28:34.434Z,99.90
2018-03-04T07:29:34.429Z,99.43
2018-03-04T07:30:34.425Z,98.96
2018-03-04T07:31:34.412Z,99.15
2018-03-04T07:32:34.405Z,98.58
2018-03-04T07:33:34.398Z,98.20
2018-03-04T07:34:34.392Z,98.10
2018-03-04T07:35:34.383Z,98.01
2018-03-04T07:36:34.376Z,98.10
2018-03-04T07:37:34.370Z,97.39
2018-03-04T07:38:34.361Z,96.16
2018-03-04T07:39:34.357Z,94.89
2018-03-04T07:40:34.354Z,92.80
2018-03-04T07:41:34.343Z,91.33
2018-03-04T07:42:34.335Z,89.15
2018-03-04T07:43:34.331Z,88.54
2018-03-04T07:44:34.325Z,86.35
2018-03-04T07:45:34.328Z,85.41
2018-03-04T07:46:34.314Z,85.74
2018-03-04T07:47:34.310Z,87.35
2018-03-04T07:48:34.304Z,88.92
2018-03-04T07:49:34.302Z,89.58
2018-03-04T07:50:34.296Z,89.77
2018-03-04T07:51:34.289Z,90.72
2018-03-04T07:52:34.413Z,90.91
2018-03-04T07:53:34.287Z,92.19
2018-03-04T07:54:34.276Z,93.04
2018-03-04T07:55:34.274Z,93.80
2018-03-04T07:56:34.268Z,93.70
2018-03-04T07:57:34.265Z,93.70
2018-03-04T07:58:34.262Z,93.80
2018-03-04T07:59:34.313Z,94.08
2018-03-04T08:00:34.247Z,94.27
2018-03-04T08:01:34.252Z,95.03
2018-03-04T08:02:34.243Z,94.56
2018-03-04T08:03:34.232Z,94.84
2018-03-04T08:04:34.228Z,95.31
2018-03-04T08:05:34.225Z,94.93
2018-03-04T08:06:34.214Z,95.21
2018-03-04T08:07:34.211Z,95.12
2018-03-04T08:08:34.205Z,95.21
2018-03-04T08:09:34.226Z,95.12
2018-03-04T08:10:34.214Z,95.21
2018-03-04T08:11:34.191Z,95.12
2018-03-04T08:12:34.190Z,94.65
2018-03-04T08:13:34.181Z,95.31
2018-03-04T08:14:34.175Z,95.03
2018-03-04T08:15:34.189Z,95.69
2018-03-04T08:16:34.168Z,95.07
2018-03-04T08:17:34.163Z,95.17
2018-03-04T08:18:34.183Z,95.26
2018-03-04T08:19:34.149Z,95.59
2018-03-04T08:20:34.143Z,95.17
2018-03-04T08:21:34.139Z,94.79
2018-03-04T08:22:34.138Z,95.45
2018-03-04T08:23:34.130Z,95.17
2018-03-04T08:24:34.123Z,95.26
2018-03-04T08:25:34.123Z,95.64
2018-03-04T08:26:34.134Z,95.64
2018-03-04T08:27:34.107Z,94.98
2018-03-04T08:28:34.197Z,94.79
2018-03-04T08:29:34.102Z,94.89
2018-03-04T08:30:34.092Z,95.64
2018-03-04T08:31:34.086Z,95.45
2018-03-04T08:32:34.084Z,95.36
2018-03-04T08:33:34.098Z,95.26
2018-03-04T08:34:34.073Z,95.07
2018-03-04T08:35:34.063Z,95.26
2018-03-04T08:36:34.058Z,95.26
2018-03-04T08:37:34.056Z,95.07
2018-03-04T08:38:34.051Z,94.79
2018-03-04T08:39:34.058Z,94.79
2018-03-04T08:40:34.037Z,94.89
2018-03-04T08:41:34.032Z,94.70
2018-03-04T08:42:34.029Z,95.07
2018-03-04T08:43:34.021Z,94.70
2018-03-04T08:44:34.017Z,94.70
2018-03-04T08:45:34.021Z,94.70
2018-03-04T08:46:34.005Z,94.32
2018-03-04T08:47:33.999Z,94.32
2018-03-04T08:48:33.995Z,94.13
2018-03-04T08:49:33.992Z,94.51
2018-03-04T08:50:33.981Z,95.17
2018-03-04T08:51:33.984Z,95.07
2018-03-04T08:52:33.974Z,94.70
2018-03-04T08:53:33.966Z,94.23
2018-03-04T08:54:33.962Z,94.23
2018-03-04T08:55:33.957Z,93.51
2018-03-04T08:56:33.953Z,93.23
2018-03-04T08:57:33.948Z,93.70
2018-03-04T08:58:33.944Z,93.61
2018-03-04T08:59:33.935Z,93.32
2018-03-04T09:00:33.931Z,93.56
2018-03-04T09:01:33.928Z,93.51
2018-03-04T09:02:33.921Z,93.46
2018-03-04T09:03:33.914Z,93.46
2018-03-04T09:04:33.912Z,93.75
2018-03-04T09:05:33.932Z,93.27
2018-03-04T09:06:33.899Z,93.75
2018-03-04T09:07:33.910Z,93.75
2018-03-04T09:08:33.885Z,93.84
2018-03-04T09:09:33.902Z,94.23
2018-03-04T09:10:33.879Z,94.37
2018-03-04T09:11:33.887Z,94.13
2018-03-04T09:12:33.875Z,94.08
2018-03-04T09:13:33.863Z,93.70
2018-03-04T09:14:33.858Z,93.65
2018-03-04T09:15:33.855Z,94.04
2018-03-04T09:16:33.846Z,94.13
2018-03-04T09:17:33.845Z,93.99
2018-03-04T09:18:33.837Z,93.46
2018-03-04T09:19:33.919Z,93.75
2018-03-04T09:20:33.831Z,93.80
2018-03-04T09:21:33.827Z,93.89
2018-03-04T09:22:33.829Z,93.80
2018-03-04T09:23:33.813Z,93.51
2018-03-04T09:24:33.812Z,94.08
2018-03-04T09:25:33.818Z,93.80
2018-03-04T09:26:33.800Z,94.18
2018-03-04T09:27:33.796Z,94.27
2018-03-04T09:28:33.789Z,93.80
2018-03-04T09:29:33.783Z,93.89
2018-03-04T09:30:33.792Z,93.70
2018-03-04T09:31:33.775Z,93.70
2018-03-04T09:32:33.773Z,93.70
2018-03-04T09:33:33.767Z,93.80
2018-03-04T09:34:33.761Z,94.46
2018-03-04T09:35:33.757Z,94.37
2018-03-04T09:36:33.768Z,93.99
2018-03-04T09:37:33.751Z,93.89
2018-03-04T09:38:33.742Z,93.23
2018-03-04T09:39:33.736Z,93.89
2018-03-04T09:40:33.736Z,93.80
2018-03-04T09:41:33.732Z,93.32
2018-03-04T09:42:33.724Z,93.99
2018-03-04T09:43:33.726Z,93.32
2018-03-04T09:44:33.715Z,93.32
2018-03-04T09:45:33.714Z,93.32
2018-03-04T09:46:33.714Z,93.32
2018-03-04T09:47:33.701Z,93.32
2018-03-04T09:48:33.708Z,93.42
2018-03-04T09:49:33.693Z,93.80
2018-03-04T09:50:33.692Z,93.23
2018-03-04T09:51:33.686Z,92.85
2018-03-04T09:52:33.680Z,92.76
2018-03-04T09:53:33.674Z,92.76
2018-03-04T09:54:33.670Z,92.38
2018-03-04T09:55:33.666Z,92.66
2018-03-04T09:56:33.663Z,92.47
2018-03-04T09:57:33.664Z,92.57
2018-03-04T09:58:33.653Z,92.57
2018-03-04T09:59:33.650Z,92.09
2018-03-04T10:00:33.645Z,92.57
2018-03-04T10:01:33.640Z,92.90
2018-03-04T10:02:33.636Z,92.61
2018-03-04T10:03:33.635Z,92.33
2018-03-04T10:04:33.625Z,91.57
2018-03-04T10:05:33.622Z,91.38
2018-03-04T10:06:33.633Z,90.91
2018-03-04T10:07:33.610Z,91.19
2018-03-04T10:08:33.718Z,91.09
2018-03-04T10:09:33.606Z,91.28
2018-03-04T10:10:33.607Z,90.72
2018-03-04T10:11:33.598Z,91.00
2018-03-04T10:12:33.595Z,90.91
2018-03-04T10:13:33.768Z,90.72
2018-03-04T10:14:33.762Z,90.72
2018-03-04T10:15:33.602Z,91.38
2018-03-04T10:16:33.579Z,91.19
2018-03-04T10:17:33.593Z,91.28
2018-03-04T10:18:33.573Z,91.28
2018-03-04T10:19:33.565Z,91.14
2018-03-04T10:20:33.565Z,90.86
2018-03-04T10:21:33.559Z,90.19
2018-03-04T10:22:33.557Z,90.19
2018-03-04T10:23:33.551Z,90.29
2018-03-04T10:24:33.560Z,89.72
2018-03-04T10:25:33.551Z,89.25
2018-03-04T10:26:33.554Z,89.53
2018-03-04T10:27:33.539Z,89.81
2018-03-04T10:28:33.537Z,89.06
2018-03-04T10:29:33.532Z,89.34
2018-03-04T10:30:33.530Z,89.43
2018-03-04T10:31:33.550Z,89.81
2018-03-04T10:32:33.528Z,89.25
2018-03-04T10:33:33.538Z,90.00
2018-03-04T10:34:33.560Z,90.29
2018-03-04T10:35:33.516Z,90.86
2018-03-04T10:36:33.513Z,90.10
2018-03-04T10:37:33.519Z,90.29
2018-03-04T10:38:33.533Z,89.81
2018-03-04T10:39:33.511Z,88.96
2018-03-04T10:40:33.523Z,89.00
2018-03-04T10:41:33.502Z,89.10
2018-03-04T10:42:33.489Z,89.20
2018-03-04T10:43:42.360Z,89.00
2018-03-04T10:45:27.881Z,88.43
2018-03-04T10:46:27.864Z,88.86
2018-03-04T10:48:22.254Z,87.57
2018-03-04T10:49:22.254Z,86.82
2018-03-04T10:51:16.608Z,85.15
2018-03-04T10:52:16.674Z,84.48
2018-03-04T10:54:11.123Z,82.62
2018-03-04T10:55:10.958Z,82.24
2018-03-04T10:57:06.434Z,82.15
2018-03-04T10:58:06.291Z,81.86
2018-03-04T10:59:06.351Z,80.19
2018-03-04T11:00:06.333Z,79.91
2018-03-04T11:01:06.316Z,79.62
2018-03-04T11:02:06.347Z,78.38
2018-03-04T11:03:06.282Z,78.48
2018-03-04T11:04:06.284Z,79.62
2018-03-04T11:05:06.292Z,80.19
2018-03-04T11:06:06.279Z,80.29
2018-03-04T11:07:06.287Z,80.91
2018-03-04T11:08:06.280Z,81.33
2018-03-04T11:09:06.280Z,81.43
2018-03-04T11:10:06.279Z,81.43
2018-03-04T11:11:06.282Z,80.57
2018-03-04T11:12:06.277Z,81.62
2018-03-04T11:13:06.281Z,81.62
2018-03-04T11:14:06.278Z,80.10
2018-03-04T11:15:06.277Z,80.33
2018-03-04T11:16:06.280Z,80.71
2018-03-04T11:17:06.277Z,79.85
2018-03-04T11:18:06.280Z,79.13
2018-03-04T11:19:06.279Z,79.51
2018-03-04T11:20:06.282Z,79.03
2018-03-04T11:21:06.281Z,78.46
2018-03-04T11:22:06.278Z,78.03
2018-03-04T11:23:06.286Z,77.45
2018-03-04T11:24:06.296Z,76.50
2018-03-04T11:25:06.272Z,77.36
2018-03-04T11:26:06.273Z,77.61
2018-03-04T11:27:06.274Z,77.80
2018-03-04T11:28:06.275Z,78.27
2018-03-04T11:29:06.273Z,77.83
2018-03-04T11:30:06.274Z,77.13
2018-03-04T11:31:06.282Z,76.88
2018-03-04T11:32:06.285Z,76.88
2018-03-04T11:33:06.273Z,75.93
2018-03-04T11:34:06.275Z,76.21
2018-03-04T11:35:06.276Z,76.31
2018-03-04T11:36:06.274Z,76.79
2018-03-04T11:37:06.274Z,76.12
2018-03-04T11:38:06.276Z,76.03
2018-03-04T11:39:06.276Z,75.89
2018-03-04T11:40:06.277Z,76.31
2018-03-04T11:41:06.278Z,76.21
2018-03-04T11:42:06.278Z,76.75
2018-03-04T11:43:06.283Z,77.55
2018-03-04T11:44:06.278Z,77.03
2018-03-04T11:45:06.282Z,76.75
2018-03-04T11:46:06.283Z,77.03
2018-03-04T11:47:06.283Z,76.27
2018-03-04T11:48:06.309Z,76.69
2018-03-04T11:49:06.284Z,76.69
2018-03-04T11:50:06.285Z,76.46
2018-03-04T11:51:06.290Z,76.94
2018-03-04T11:52:06.316Z,77.32
2018-03-04T11:53:06.292Z,78.17
2018-03-04T11:54:06.287Z,77.61
2018-03-04T11:55:06.312Z,77.70
2018-03-04T11:56:06.291Z,77.51
2018-03-04T11:57:06.289Z,78.08
2018-03-04T11:58:06.290Z,77.61
2018-03-04T11:59:06.293Z,77.61
2018-03-04T12:00:06.286Z,77.37
2018-03-04T12:01:06.342Z,78.23
2018-03-04T12:02:06.292Z,78.04
2018-03-04T12:03:06.305Z,78.71
2018-03-04T12:04:06.325Z,78.71
2018-03-04T12:05:06.296Z,78.42
2018-03-04T12:06:06.325Z,78.61
2018-03-04T12:07:06.306Z,78.23
2018-03-04T12:08:06.291Z,78.52
2018-03-04T12:09:06.296Z,78.52
2018-03-04T12:10:06.295Z,78.90
2018-03-04T12:11:06.327Z,78.71
2018-03-04T12:12:06.291Z,78.52
2018-03-04T12:13:06.323Z,78.48
2018-03-04T12:14:06.301Z,79.33
2018-03-04T12:15:06.299Z,79.96
2018-03-04T12:16:06.309Z,81.38
2018-03-04T12:17:06.292Z,82.29
2018-03-04T12:18:06.289Z,83.15
2018-03-04T12:19:06.382Z,83.53
2018-03-04T12:20:06.297Z,84.48
2018-03-04T12:21:06.293Z,84.58
2018-03-04T12:22:06.305Z,85.01
2018-03-04T12:23:06.291Z,85.58
2018-03-04T12:24:06.296Z,85.77
2018-03-04T12:25:06.335Z,86.15
2018-03-04T12:26:06.286Z,86.34
2018-03-04T12:27:06.282Z,86.15
2018-03-04T12:28:06.288Z,87.01
2018-03-04T12:29:06.278Z,87.76
2018-03-04T12:30:06.277Z,87.38
2018-03-04T12:31:06.276Z,86.43
2018-03-04T12:32:06.279Z,86.57
2018-03-04T12:33:06.292Z,86.10
2018-03-04T12:34:06.279Z,85.53
2018-03-04T12:35:06.284Z,85.72
2018-03-04T12:36:06.267Z,85.53
2018-03-04T12:37:06.452Z,85.34
2018-03-04T12:38:06.265Z,85.62
2018-03-04T12:39:06.265Z,84.67
2018-03-04T12:40:06.261Z,84.20
2018-03-04T12:41:06.257Z,84.48
2018-03-04T12:42:06.392Z,84.67
2018-03-04T12:43:06.303Z,85.05
2018-03-04T12:44:06.269Z,84.62
2018-03-04T12:45:06.266Z,84.14
2018-03-04T12:46:06.249Z,83.67
2018-03-04T12:47:06.276Z,82.57
2018-03-04T12:48:06.249Z,81.71
2018-03-04T12:49:06.243Z,80.66
2018-03-04T12:50:06.250Z,80.61
2018-03-04T12:51:06.244Z,80.33
2018-03-04T12:52:06.238Z,79.99
2018-03-04T12:53:06.241Z,79.60
2018-03-04T12:54:06.243Z,78.65
2018-03-04T12:55:06.253Z,77.98
2018-03-04T12:56:06.283Z,77.51
2018-03-04T12:57:06.246Z,76.18
2018-03-04T12:58:06.234Z,76.90
2018-03-04T12:59:06.229Z,77.76
2018-03-04T13:00:06.285Z,78.52
2018-03-04T13:01:06.227Z,78.71
2018-03-04T13:02:06.228Z,79.47
2018-03-04T13:03:06.224Z,79.24
2018-03-04T13:04:06.252Z,79.62
2018-03-04T13:05:06.222Z,79.38
2018-03-04T13:06:06.230Z,79.81
2018-03-04T13:07:06.903Z,79.62
2018-03-04T13:08:06.225Z,79.52
2018-03-04T13:09:06.217Z,79.47
2018-03-04T13:10:06.217Z,79.09
2018-03-04T13:11:08.128Z,78.80
2018-03-04T13:12:06.285Z,78.52
2018-03-04T13:13:06.217Z,78.52
2018-03-04T13:14:06.214Z,78.14
2018-03-04T13:15:06.212Z,78.61
2018-03-04T13:16:06.212Z,78.42
2018-03-04T13:17:06.229Z,78.14
2018-03-04T13:18:06.211Z,78.04
2018-03-04T13:19:06.206Z,78.23
2018-03-04T13:20:06.205Z,77.66
2018-03-04T13:21:06.207Z,77.95
2018-03-04T13:22:06.207Z,77.76
2018-03-04T13:23:06.212Z,78.04
2018-03-04T13:24:06.203Z,78.23
2018-03-04T13:25:06.201Z,78.42
2018-03-04T13:26:06.200Z,78.33
2018-03-04T13:27:06.203Z,79.38
2018-03-04T13:28:06.201Z,78.90
2018-03-04T13:29:06.194Z,78.71
2018-03-04T13:30:06.234Z,78.52
2018-03-04T13:31:06.218Z,78.61
2018-03-04T13:32:06.192Z,78.80
2018-03-04T13:33:06.441Z,77.95